Delta Virtual Airport Information Service

Sao Paulo Guarulhos International Airport

ICAO: SBGR Country: Brazil
Latitude: -23.432 Longitude: -46.4695
Latest Arrival : DAL562371 (FAOR-SBGR) Latest Departure : DAL562371 (SBGR-MMUN)


WX CaptureLIVE
Data provided by noaa.gov | Fetched at 23:56:27

METAR : SBGR 250400Z 28011KT 9999 OVC019 13/09 Q1019

TAF : SBGR 242200Z 2500/2606 31007KT CAVOK TN09/2509Z TX19/2518Z BECMG 2512/2514 30013KT PROB30 2515/2519 30015G25KT BECMG 2520/2522 32007KT RMK PGG


Runway Data for SBGR
Data provided by openaviationdata.com

Runway ID Mag Var Hdg Length Elevation Surface ILS Freq ILS Id ILS Slope
09L -20 93° 12151 ft 2458 ft Asphalt 110.7 IUC 2
09R -20 93° 9819 ft 2458 ft Asphalt 111.5 IGR 2
27L -20 273° 9819 ft 2458 ft Asphalt 111.1 IBC 3
27R -20 273° 12151 ft 2458 ft Asphalt 109.7 IGS 3

Sao Paulo Guarulhos International Airport, Brazil
Use only for reference purposes



Not for navigational purposes.